Dutchess County Airport Poughkeepsie US
ICAO: KPOU
IATA: POU
Category: Medium
Scheduled Services: No

Elevation: 165 ft
TransAlt. 18000 ft.

Airport Communications:
ASOS:126.75
ATIS:126.75
CLNC DEL:121.8
NEW YORK CNTR:132.75
CTAF:124
GND:121.8
NEW YORK RDO:122.2
TWR:124
UNICOM:122.95

KPOU Zoom In..

If you have problems with the map follow the link
https://www.worldairports.se/pages/airport.php?
ICAO=KPOU

Runways:

(A) RW 06 length 4999 ft width 100 ft
ILS 111.30 / hdg 63

(B) RW 07 length 1358 ft width 100 ft
---- / hdg 63

(C) RW 15 length 2744 ft width 100 ft
---- / hdg 151

(D) RW 24 length 4999 ft width 100 ft
---- / hdg 243

(E) RW 25 length 1358 ft width 100 ft
---- / hdg 243

(F) RW 33 length 2744 ft width 100 ft
---- / hdg 331

Location; KPOU
Day. 25 / Time. 23.31 Zulu
* Altimeter: 29.76
* Temperature: 04° c. 39.2°f.
* Wind from: 330° Speed 05 kn.
Dewpoint: 03° c.
Visibility: 2 m.
Clouds: Few 400 ft.
Clouds: Overcast 2400 ft.
Conditions: Light Rain.Conditions: Mist.

KPOU 252331Z 33005KT 2 1/2SM -RA BR FEW004 OVC024 04/03 A2976 RMK AO2 RAE2254B22 P0001 T00440033


Wind From 330°
Speed 05 kn.

 
 
jpsmedia worldairports.se 2020   terms of use